Latest Weather Observations for North Head

IDN60901

Issued at 4:11 pm EDT Monday 30 March 2020 (issued every 10 minutes, with the page automatically refreshed every 10 minutes)

About weather observations | Map of Sydney area stations | Latest observations for Sydney area | Other Formats
Station Details ID: 066197 Name: NORTH HEAD Lat: -33.82 Lon: 151.30 Height: 90.0 m
Data from the previous 72 hours. | See also: Recent months at North Head
Date/Time
EDT
Temp
°C
App
Temp
°C
Dew
Point
°C
Rel
Hum
%
Delta-T
°C
Wind Press
QNH
hPa
Press
MSL
hPa
Rain since
9am
mm
Dir  Spd
km/h
Gust
km/h
Spd
kts
Gust
kts
30/04:00pm - - - - - WSW 11 19 6 10 - - -
30/03:30pm - - - - - NW 9 17 5 9 - - -
30/03:00pm - - - - - NW 9 17 5 9 - - -
30/02:30pm - - - - - NW 11 19 6 10 - - -
30/02:00pm - - - - - NW 11 15 6 8 - - -
30/01:30pm - - - - - NW 9 15 5 8 - - -
30/01:00pm - - - - - NW 7 11 4 6 - - -
30/12:30pm - - - - - NNW 11 19 6 10 - - -
30/12:00pm - - - - - NW 15 24 8 13 - - -
30/11:30am - - - - - NNW 13 22 7 12 - - -
30/11:00am - - - - - N 13 19 7 10 - - -
30/10:30am - - - - - N 7 13 4 7 - - -
30/10:00am - - - - - NW 7 11 4 6 - - -
30/09:30am - - - - - N 9 13 5 7 - - -
30/09:00am - - - - - NNE 13 17 7 9 - - -
30/08:30am - - - - - N 9 13 5 7 - - -
30/08:00am - - - - - NW 7 9 4 5 - - -
30/07:30am - - - - - NW 7 11 4 6 - - -
30/07:00am - - - - - NNW 11 15 6 8 - - -
30/06:30am - - - - - W 9 13 5 7 - - -
30/06:00am - - - - - NW 7 13 4 7 - - -
30/05:30am - - - - - W 6 11 3 6 - - -
30/05:00am - - - - - W 13 19 7 10 - - -
30/04:30am - - - - - W 13 15 7 8 - - -
30/04:00am - - - - - NW 6 6 3 3 - - -
30/03:30am - - - - - NW 6 7 3 4 - - -
30/03:00am - - - - - N 6 7 3 4 - - -
30/02:30am - - - - - NNW 7 11 4 6 - - -
30/02:00am - - - - - NNE 11 17 6 9 - - -
30/01:30am - - - - - NNE 15 24 8 13 - - -
30/01:00am - - - - - NNE 17 24 9 13 - - -
30/12:30am - - - - - NNE 17 24 9 13 - - -
30/12:00am - - - - - NNE 15 24 8 13 - - -
 
Date/Time
EDT
Temp
°C
App
Temp
°C
Dew
Point
°C
Rel
Hum
%
Delta-T
°C
Wind Press
QNH
hPa
Press
MSL
hPa
Rain since
9am
mm
Dir  Spd
km/h
Gust
km/h
Spd
kts
Gust
kts
29/11:30pm - - - - - NNE 15 22 8 12 - - -
29/11:00pm - - - - - NNE 15 20 8 11 - - -
29/10:30pm - - - - - NNE 15 20 8 11 - - -
29/10:00pm - - - - - NNE 17 24 9 13 - - -
29/09:30pm - - - - - NNE 19 30 10 16 - - -
29/09:00pm - - - - - NNE 19 30 10 16 - - -
29/08:30pm - - - - - NNE 19 32 10 17 - - -
29/08:00pm - - - - - NNE 19 28 10 15 - - -
29/07:30pm - - - - - NNE 19 28 10 15 - - -
29/07:00pm - - - - - NNE 19 28 10 15 - - -
29/06:30pm - - - - - NNE 19 30 10 16 - - -
29/06:00pm - - - - - NNE 17 30 9 16 - - -
29/05:30pm - - - - - NNE 17 26 9 14 - - -
29/05:00pm - - - - - NNE 17 24 9 13 - - -
29/04:30pm - - - - - NNE 19 30 10 16 - - -
29/04:00pm - - - - - NE 17 30 9 16 - - -
29/03:30pm - - - - - NE 17 24 9 13 - - -
29/03:00pm - - - - - NE 19 32 10 17 - - -
29/02:30pm - - - - - NE 15 28 8 15 - - -
29/02:00pm - - - - - NE 20 32 11 17 - - -
29/01:30pm - - - - - NE 17 32 9 17 - - -
29/01:00pm - - - - - NE 19 28 10 15 - - -
29/12:30pm - - - - - NE 15 24 8 13 - - -
29/12:00pm - - - - - NNE 17 26 9 14 - - -
29/11:30am - - - - - NNE 17 26 9 14 - - -
29/11:00am - - - - - NNE 15 22 8 12 - - -
29/10:30am - - - - - NNE 17 24 9 13 - - -
29/10:00am - - - - - NNE 19 30 10 16 - - -
29/09:30am - - - - - NNE 19 28 10 15 - - -
29/09:00am - - - - - NNE 6 11 3 6 - - -
29/08:30am - - - - - N 4 7 2 4 - - -
29/08:00am - - - - - NW 4 7 2 4 - - -
29/07:30am - - - - - WNW 4 7 2 4 - - -
29/07:00am - - - - - NNW 6 9 3 5 - - -
29/06:30am - - - - - WNW 6 6 3 3 - - -
29/06:00am - - - - - WNW 4 7 2 4 - - -
29/05:30am - - - - - WNW 6 7 3 4 - - -
29/05:00am - - - - - NNW 4 4 2 2 - - -
29/04:30am - - - - - NNW 6 6 3 3 - - -
29/04:00am - - - - - NNE 9 17 5 9 - - -
29/03:30am - - - - - ENE 26 39 14 21 - - -
29/03:00am - - - - - ENE 17 26 9 14 - - -
29/02:30am - - - - - NNE 11 20 6 11 - - -
29/02:00am - - - - - NNE 11 17 6 9 - - -
29/01:30am - - - - - N 9 15 5 8 - - -
29/01:00am - - - - - NNE 15 22 8 12 - - -
29/12:30am - - - - - NE 22 33 12 18 - - -
29/12:00am - - - - - NE 17 24 9 13 - - -
 
Date/Time
EDT
Temp
°C
App
Temp
°C
Dew
Point
°C
Rel
Hum
%
Delta-T
°C
Wind Press
QNH
hPa
Press
MSL
hPa
Rain since
9am
mm
Dir  Spd
km/h
Gust
km/h
Spd
kts
Gust
kts
28/11:30pm - - - - - NE 19 28 10 15 - - -
28/11:00pm - - - - - NNE 15 24 8 13 - - -
28/10:30pm - - - - - NNE 15 24 8 13 - - -
28/10:00pm - - - - - N 15 22 8 12 - - -
28/09:30pm - - - - - NE 17 28 9 15 - - -
28/09:00pm - - - - - NE 15 22 8 12 - - -
28/08:30pm - - - - - NNE 7 11 4 6 - - -
28/08:00pm - - - - - NNE 4 11 2 6 - - -
28/07:30pm - - - - - ENE 11 19 6 10 - - -
28/07:00pm - - - - - ENE 7 17 4 9 - - -
28/06:30pm - - - - - SE 4 7 2 4 - - -
28/06:00pm - - - - - ESE 6 7 3 4 - - -
28/05:30pm - - - - - E 13 26 7 14 - - -
28/05:00pm - - - - - E 15 24 8 13 - - -
28/04:30pm - - - - - E 13 26 7 14 - - -
28/04:00pm - - - - - E 9 13 5 7 - - -
28/03:30pm - - - - - E 9 13 5 7 - - -
28/03:00pm - - - - - E 11 15 6 8 - - -
28/02:30pm - - - - - ENE 9 15 5 8 - - -
28/02:00pm - - - - - ENE 11 17 6 9 - - -
28/01:30pm - - - - - E 9 15 5 8 - - -
28/01:00pm - - - - - E 13 19 7 10 - - -
28/12:30pm - - - - - E 7 13 4 7 - - -
28/12:00pm - - - - - ESE 7 13 4 7 - - -
28/11:30am - - - - - ESE 6 11 3 6 - - -
28/11:00am - - - - - ENE 6 9 3 5 - - -
28/10:30am - - - - - SE 6 9 3 5 - - -
28/10:00am - - - - - SW 7 9 4 5 - - -
28/09:30am - - - - - W 6 9 3 5 - - -
28/09:00am - - - - - W 6 7 3 4 - - -
28/08:30am - - - - - W 6 9 3 5 - - -
28/08:00am - - - - - WSW 7 9 4 5 - - -
28/07:30am - - - - - W 9 9 5 5 - - -
28/07:00am - - - - - W 7 9 4 5 - - -
28/06:30am - - - - - W 9 9 5 5 - - -
28/06:00am - - - - - W 9 11 5 6 - - -
28/05:30am - - - - - W 9 9 5 5 - - -
28/05:00am - - - - - W 7 9 4 5 - - -
28/04:30am - - - - - W 7 9 4 5 - - -
28/04:00am - - - - - W 9 9 5 5 - - -
28/03:30am - - - - - W 7 9 4 5 - - -
28/03:00am - - - - - W 7 9 4 5 - - -
28/02:30am - - - - - WNW 4 6 2 3 - - -
28/02:00am - - - - - SSE 9 15 5 8 - - -
28/01:30am - - - - - SSE 7 11 4 6 - - -
28/01:00am - - - - - SSE 11 17 6 9 - - -
28/12:30am - - - - - SSE 17 24 9 13 - - -
28/12:00am - - - - - SSE 11 17 6 9 - - -
 
Date/Time
EDT
Temp
°C
App
Temp
°C
Dew
Point
°C
Rel
Hum
%
Delta-T
°C
Wind Press
QNH
hPa
Press
MSL
hPa
Rain since
9am
mm
Dir  Spd
km/h
Gust
km/h
Spd
kts
Gust
kts
27/11:30pm - - - - - SSE 7 13 4 7 - - -
27/11:00pm - - - - - SE 7 13 4 7 - - -
27/10:30pm - - - - - ESE 11 20 6 11 - - -
27/10:00pm - - - - - ESE 9 15 5 8 - - -
27/09:30pm - - - - - SE 7 13 4 7 - - -
27/09:00pm - - - - - ESE 11 15 6 8 - - -
27/08:30pm - - - - - ESE 11 19 6 10 - - -
27/08:00pm - - - - - ESE 13 17 7 9 - - -
27/07:30pm - - - - - SE 7 11 4 6 - - -
27/07:00pm - - - - - SE 9 15 5 8 - - -
27/06:30pm - - - - - SSE 11 19 6 10 - - -
27/06:00pm - - - - - SE 15 20 8 11 - - -
27/05:30pm - - - - - SE 11 19 6 10 - - -
27/05:00pm - - - - - ESE 11 19 6 10 - - -
27/04:30pm - - - - - ESE 13 20 7 11 - - -

Latest Capital City Observations: Canberra | Sydney | Melbourne | Brisbane | Adelaide | Perth | Hobart | Darwin

Other formats

Comma delimited format used in spreadsheet applications
http://www.bom.gov.au/fwo/IDN60901/IDN60901.95768.axf

JavaScript Object Notation format (JSON) in row-major order
http://www.bom.gov.au/fwo/IDN60901/IDN60901.95768.json

Data quality

Most of these data are generated automatically and are frequently updated. Quality checks on data are not normally performed. It is possible for incorrect values to appear. Refer to information at About Latest Weather Observations and please check the disclaimer before using these data.